GLV1024 SBRF-SBFN
Flight info
| Callsign | GLV1024 |
|---|---|
| Flight time | 0h 54m |
| Altitude | 27000 |
| Route | FNR |
| Aircraft | B738/M-SDE2E3FGHIRWXY/LB1 |
Departure
| Time | 2026-04-23 23:20 |
|---|---|
| Airport | Recife/Guararapes - Gilberto Freyre International Airport (SBRF) |
Arrival
| Time | 2026-04-24 00:14 |
|---|---|
| Airport | Fernando de Noronha Airport (SBFN) |
| Time | Latitude | Longitude | Altitude | Speed | Heading |
|---|---|---|---|---|---|
| 2026-04-23 23:06 | -8.12128 | -34.92866 | 45 ft | 0 kts | 214° |
| 2026-04-23 23:09 | -8.12128 | -34.92865 | 45 ft | 0 kts | 214° |
| 2026-04-23 23:09 | -8.12120 | -34.92859 | 45 ft | 0 kts | 218° |
| 2026-04-23 23:09 | -8.12114 | -34.92855 | 45 ft | 1 kts | 187° |
| 2026-04-23 23:10 | -8.12105 | -34.92857 | 45 ft | 0 kts | 132° |
| 2026-04-23 23:10 | -8.12102 | -34.92862 | 45 ft | 0 kts | 120° |
| 2026-04-23 23:10 | -8.12101 | -34.92865 | 45 ft | 0 kts | 123° |
| 2026-04-23 23:12 | -8.12103 | -34.92862 | 45 ft | 3 kts | 124° |
| 2026-04-23 23:12 | -8.12140 | -34.92807 | 45 ft | 15 kts | 124° |
| 2026-04-23 23:12 | -8.12194 | -34.92734 | 46 ft | 9 kts | 123° |
| 2026-04-23 23:12 | -8.12227 | -34.92683 | 46 ft | 7 kts | 124° |
| 2026-04-23 23:13 | -8.12255 | -34.92644 | 47 ft | 5 kts | 121° |
| 2026-04-23 23:13 | -8.12258 | -34.92616 | 46 ft | 2 kts | 70° |
| 2026-04-23 23:13 | -8.12240 | -34.92601 | 45 ft | 8 kts | 19° |
| 2026-04-23 23:13 | -8.12183 | -34.92594 | 45 ft | 7 kts | 9° |
| 2026-04-23 23:14 | -8.12139 | -34.92586 | 45 ft | 5 kts | 12° |
| 2026-04-23 23:14 | -8.12104 | -34.92578 | 45 ft | 4 kts | 11° |
| 2026-04-23 23:14 | -8.12078 | -34.92574 | 45 ft | 3 kts | 11° |
| 2026-04-23 23:14 | -8.12060 | -34.92570 | 45 ft | 1 kts | 11° |
| 2026-04-23 23:15 | -8.12045 | -34.92566 | 45 ft | 2 kts | 15° |
| 2026-04-23 23:15 | -8.12022 | -34.92561 | 45 ft | 4 kts | 13° |
| 2026-04-23 23:15 | -8.11986 | -34.92553 | 45 ft | 6 kts | 9° |
| 2026-04-23 23:15 | -8.11933 | -34.92550 | 45 ft | 8 kts | 354° |
| 2026-04-23 23:16 | -8.11862 | -34.92570 | 45 ft | 13 kts | 342° |
| 2026-04-23 23:16 | -8.11770 | -34.92599 | 44 ft | 14 kts | 342° |
| 2026-04-23 23:16 | -8.11676 | -34.92631 | 42 ft | 14 kts | 341° |
| 2026-04-23 23:16 | -8.11578 | -34.92658 | 40 ft | 12 kts | 351° |
| 2026-04-23 23:17 | -8.11494 | -34.92661 | 39 ft | 11 kts | 355° |
| 2026-04-23 23:17 | -8.11480 | -34.92693 | 38 ft | 4 kts | 193° |
| 2026-04-23 23:17 | -8.11492 | -34.92688 | 39 ft | 0 kts | 140° |
| 2026-04-23 23:17 | -8.11514 | -34.92679 | 39 ft | 3 kts | 170° |
| 2026-04-23 23:18 | -8.11525 | -34.92677 | 39 ft | 0 kts | 168° |
| 2026-04-23 23:18 | -8.11527 | -34.92676 | 39 ft | 0 kts | 168° |
| 2026-04-23 23:18 | -8.11540 | -34.92674 | 40 ft | 3 kts | 167° |
| 2026-04-23 23:18 | -8.11550 | -34.92671 | 40 ft | 0 kts | 162° |
| 2026-04-23 23:19 | -8.11641 | -34.92640 | 42 ft | 44 kts | 162° |
| 2026-04-23 23:19 | -8.12233 | -34.92450 | 46 ft | 132 kts | 162° |
| 2026-04-23 23:19 | -8.13316 | -34.92092 | 92 ft | 186 kts | 162° |
| 2026-04-23 23:19 | -8.14604 | -34.91650 | 393 ft | 205 kts | 161° |
| 2026-04-23 23:20 | -8.16059 | -34.91196 | 686 ft | 230 kts | 164° |
| 2026-04-23 23:20 | -8.17643 | -34.90707 | 1178 ft | 249 kts | 162° |
| 2026-04-23 23:20 | -8.19329 | -34.90142 | 1680 ft | 262 kts | 161° |
| 2026-04-23 23:20 | -8.20968 | -34.89313 | 2186 ft | 265 kts | 137° |
| 2026-04-23 23:21 | -8.21913 | -34.87752 | 2691 ft | 267 kts | 102° |
| 2026-04-23 23:21 | -8.21832 | -34.85931 | 3197 ft | 267 kts | 68° |
| 2026-04-23 23:21 | -8.20810 | -34.84378 | 3722 ft | 268 kts | 43° |
| 2026-04-23 23:21 | -8.19274 | -34.83356 | 4225 ft | 269 kts | 24° |
| 2026-04-23 23:22 | -8.17733 | -34.82300 | 4711 ft | 272 kts | 50° |
| 2026-04-23 23:22 | -8.16793 | -34.80656 | 5233 ft | 274 kts | 64° |
| 2026-04-23 23:22 | -8.15897 | -34.78944 | 5739 ft | 276 kts | 57° |
| 2026-04-23 23:22 | -8.14777 | -34.77352 | 6240 ft | 278 kts | 51° |
| 2026-04-23 23:23 | -8.13559 | -34.75864 | 6734 ft | 280 kts | 49° |
| 2026-04-23 23:23 | -8.12293 | -34.74380 | 7232 ft | 281 kts | 48° |
| 2026-04-23 23:23 | -8.11003 | -34.72875 | 7735 ft | 283 kts | 49° |
| 2026-04-23 23:23 | -8.09724 | -34.71378 | 8231 ft | 286 kts | 49° |
| 2026-04-23 23:24 | -8.08437 | -34.69830 | 8734 ft | 288 kts | 51° |
| 2026-04-23 23:24 | -8.07215 | -34.68206 | 9239 ft | 290 kts | 52° |
| 2026-04-23 23:24 | -8.06008 | -34.66563 | 9739 ft | 295 kts | 52° |
| 2026-04-23 23:24 | -8.04785 | -34.64911 | 10213 ft | 302 kts | 52° |
| 2026-04-23 23:25 | -8.03485 | -34.63168 | 10371 ft | 326 kts | 52° |
| 2026-04-23 23:25 | -8.02081 | -34.61284 | 10675 ft | 343 kts | 52° |
| 2026-04-23 23:25 | -8.00644 | -34.59359 | 11283 ft | 350 kts | 53° |
| 2026-04-23 23:25 | -7.99167 | -34.57394 | 11973 ft | 354 kts | 53° |
| 2026-04-23 23:26 | -7.97709 | -34.55460 | 12637 ft | 358 kts | 53° |
| 2026-04-23 23:26 | -7.96194 | -34.53436 | 13317 ft | 362 kts | 52° |
| 2026-04-23 23:26 | -7.94491 | -34.51575 | 13973 ft | 367 kts | 43° |
| 2026-04-23 23:26 | -7.92464 | -34.49956 | 14660 ft | 371 kts | 33° |
| 2026-04-23 23:27 | -7.90251 | -34.48669 | 15326 ft | 375 kts | 26° |
| 2026-04-23 23:27 | -7.87898 | -34.47504 | 15987 ft | 378 kts | 25° |
| 2026-04-23 23:27 | -7.85523 | -34.46357 | 16623 ft | 382 kts | 24° |
| 2026-04-23 23:27 | -7.83124 | -34.45204 | 17253 ft | 386 kts | 24° |
| 2026-04-23 23:28 | -7.80687 | -34.44036 | 17872 ft | 389 kts | 24° |
| 2026-04-23 23:28 | -7.78254 | -34.42871 | 18477 ft | 392 kts | 24° |
| 2026-04-23 23:28 | -7.75774 | -34.41683 | 19072 ft | 395 kts | 24° |
| 2026-04-23 23:28 | -7.73311 | -34.40504 | 19651 ft | 398 kts | 24° |
| 2026-04-23 23:29 | -7.70792 | -34.39297 | 20226 ft | 401 kts | 23° |
| 2026-04-23 23:29 | -7.68271 | -34.38090 | 20783 ft | 404 kts | 23° |
| 2026-04-23 23:29 | -7.65734 | -34.36876 | 21328 ft | 407 kts | 23° |
| 2026-04-23 23:29 | -7.63186 | -34.35657 | 21855 ft | 409 kts | 23° |
| 2026-04-23 23:30 | -7.60611 | -34.34425 | 22378 ft | 412 kts | 23° |
| 2026-04-23 23:30 | -7.58019 | -34.33185 | 22888 ft | 414 kts | 23° |
| 2026-04-23 23:30 | -7.55433 | -34.31948 | 23385 ft | 416 kts | 22° |
| 2026-04-23 23:30 | -7.52817 | -34.30697 | 23877 ft | 418 kts | 22° |
| 2026-04-23 23:31 | -7.50178 | -34.29435 | 24356 ft | 420 kts | 22° |
| 2026-04-23 23:31 | -7.47542 | -34.28175 | 24829 ft | 422 kts | 22° |
| 2026-04-23 23:31 | -7.44895 | -34.26909 | 25284 ft | 424 kts | 22° |
| 2026-04-23 23:31 | -7.42268 | -34.25653 | 25732 ft | 426 kts | 22° |
| 2026-04-23 23:32 | -7.39573 | -34.24365 | 26172 ft | 428 kts | 22° |
| 2026-04-23 23:32 | -7.36903 | -34.23089 | 26603 ft | 430 kts | 22° |
| 2026-04-23 23:32 | -7.34190 | -34.21793 | 26942 ft | 431 kts | 22° |
| 2026-04-23 23:32 | -7.31442 | -34.20480 | 26966 ft | 436 kts | 22° |
| 2026-04-23 23:33 | -7.28698 | -34.19170 | 26965 ft | 438 kts | 22° |
| 2026-04-23 23:33 | -7.25986 | -34.17874 | 26965 ft | 435 kts | 22° |
| 2026-04-23 23:33 | -7.23229 | -34.16556 | 26966 ft | 434 kts | 22° |
| 2026-04-23 23:33 | -7.20526 | -34.15265 | 26966 ft | 434 kts | 22° |
| 2026-04-23 23:34 | -7.17772 | -34.13950 | 26966 ft | 434 kts | 22° |
| 2026-04-23 23:34 | -7.15083 | -34.12667 | 26966 ft | 435 kts | 22° |
| 2026-04-23 23:34 | -7.12318 | -34.11347 | 26966 ft | 435 kts | 22° |
| 2026-04-23 23:34 | -7.09587 | -34.10044 | 26966 ft | 435 kts | 22° |
| 2026-04-23 23:35 | -7.06852 | -34.08738 | 26966 ft | 435 kts | 22° |
| 2026-04-23 23:35 | -7.04156 | -34.07452 | 26966 ft | 435 kts | 22° |
| 2026-04-23 23:35 | -7.01393 | -34.06134 | 26966 ft | 435 kts | 22° |
| 2026-04-23 23:35 | -6.98677 | -34.04839 | 26966 ft | 436 kts | 22° |
| 2026-04-23 23:36 | -6.95944 | -34.03535 | 26966 ft | 436 kts | 22° |
| 2026-04-23 23:36 | -6.93187 | -34.02220 | 26966 ft | 437 kts | 22° |
| 2026-04-23 23:36 | -6.90439 | -34.00910 | 26966 ft | 438 kts | 22° |
| 2026-04-23 23:36 | -6.87683 | -33.99596 | 26966 ft | 438 kts | 22° |
| 2026-04-23 23:37 | -6.84965 | -33.98301 | 26966 ft | 439 kts | 22° |
| 2026-04-23 23:37 | -6.82207 | -33.96986 | 26966 ft | 438 kts | 22° |
| 2026-04-23 23:37 | -6.79448 | -33.95671 | 26966 ft | 438 kts | 22° |
| 2026-04-23 23:37 | -6.76687 | -33.94355 | 26966 ft | 438 kts | 22° |
| 2026-04-23 23:38 | -6.73967 | -33.93059 | 26966 ft | 438 kts | 22° |
| 2026-04-23 23:38 | -6.71192 | -33.91737 | 26966 ft | 438 kts | 22° |
| 2026-04-23 23:38 | -6.68457 | -33.90435 | 26966 ft | 438 kts | 22° |
| 2026-04-23 23:38 | -6.65708 | -33.89125 | 26966 ft | 438 kts | 22° |
| 2026-04-23 23:39 | -6.62965 | -33.87819 | 26966 ft | 438 kts | 22° |
| 2026-04-23 23:39 | -6.60189 | -33.86497 | 26966 ft | 438 kts | 22° |
| 2026-04-23 23:39 | -6.57473 | -33.85204 | 26966 ft | 438 kts | 22° |
| 2026-04-23 23:39 | -6.54693 | -33.83881 | 26966 ft | 438 kts | 22° |
| 2026-04-23 23:40 | -6.51953 | -33.82576 | 26966 ft | 438 kts | 22° |
| 2026-04-23 23:40 | -6.49209 | -33.81270 | 26966 ft | 438 kts | 22° |
| 2026-04-23 23:40 | -6.46438 | -33.79951 | 26966 ft | 438 kts | 22° |
| 2026-04-23 23:40 | -6.43696 | -33.78648 | 26966 ft | 438 kts | 22° |
| 2026-04-23 23:41 | -6.40946 | -33.77339 | 26966 ft | 438 kts | 22° |
| 2026-04-23 23:41 | -6.38196 | -33.76031 | 26966 ft | 438 kts | 22° |
| 2026-04-23 23:41 | -6.35407 | -33.74704 | 26966 ft | 438 kts | 22° |
| 2026-04-23 23:41 | -6.32691 | -33.73413 | 26966 ft | 438 kts | 22° |
| 2026-04-23 23:42 | -6.29913 | -33.72092 | 26966 ft | 438 kts | 22° |
| 2026-04-23 23:42 | -6.27140 | -33.70773 | 26966 ft | 438 kts | 22° |
| 2026-04-23 23:42 | -6.24381 | -33.69462 | 26966 ft | 438 kts | 22° |
| 2026-04-23 23:42 | -6.21617 | -33.68148 | 26966 ft | 438 kts | 22° |
| 2026-04-23 23:43 | -6.18859 | -33.66837 | 26966 ft | 438 kts | 22° |
| 2026-04-23 23:43 | -6.16126 | -33.65538 | 26966 ft | 438 kts | 22° |
| 2026-04-23 23:43 | -6.13380 | -33.64233 | 26966 ft | 438 kts | 22° |
| 2026-04-23 23:43 | -6.10619 | -33.62922 | 26966 ft | 438 kts | 22° |
| 2026-04-23 23:44 | -6.07886 | -33.61623 | 26966 ft | 438 kts | 22° |
| 2026-04-23 23:44 | -6.05116 | -33.60308 | 26966 ft | 438 kts | 22° |
| 2026-04-23 23:44 | -6.02376 | -33.59006 | 26966 ft | 438 kts | 22° |
| 2026-04-23 23:44 | -5.99623 | -33.57699 | 26966 ft | 438 kts | 22° |
| 2026-04-23 23:45 | -5.96868 | -33.56391 | 26966 ft | 438 kts | 22° |
| 2026-04-23 23:45 | -5.94107 | -33.55080 | 26966 ft | 438 kts | 22° |
| 2026-04-23 23:45 | -5.91347 | -33.53770 | 26966 ft | 438 kts | 22° |
| 2026-04-23 23:45 | -5.88604 | -33.52467 | 26966 ft | 438 kts | 22° |
| 2026-04-23 23:46 | -5.85848 | -33.51159 | 26966 ft | 438 kts | 22° |
| 2026-04-23 23:46 | -5.83114 | -33.49862 | 26966 ft | 438 kts | 22° |
| 2026-04-23 23:46 | -5.80374 | -33.48562 | 26966 ft | 438 kts | 22° |
| 2026-04-23 23:46 | -5.77593 | -33.47242 | 26966 ft | 438 kts | 22° |
| 2026-04-23 23:47 | -5.74864 | -33.45948 | 26966 ft | 438 kts | 22° |
| 2026-04-23 23:47 | -5.72122 | -33.44647 | 26966 ft | 438 kts | 22° |
| 2026-04-23 23:47 | -5.69345 | -33.43330 | 26966 ft | 438 kts | 22° |
| 2026-04-23 23:47 | -5.66612 | -33.42033 | 26966 ft | 438 kts | 22° |
| 2026-04-23 23:48 | -5.63823 | -33.40711 | 26966 ft | 438 kts | 22° |
| 2026-04-23 23:48 | -5.61108 | -33.39423 | 26966 ft | 438 kts | 22° |
| 2026-04-23 23:48 | -5.58329 | -33.38106 | 26965 ft | 438 kts | 22° |
| 2026-04-23 23:48 | -5.55600 | -33.36812 | 26961 ft | 438 kts | 22° |
| 2026-04-23 23:49 | -5.50082 | -33.34197 | 26951 ft | 438 kts | 22° |
| 2026-04-23 23:49 | -5.47302 | -33.32879 | 26946 ft | 438 kts | 22° |
| 2026-04-23 23:49 | -5.44549 | -33.31575 | 26942 ft | 438 kts | 22° |
| 2026-04-23 23:50 | -5.41827 | -33.30285 | 26939 ft | 438 kts | 22° |
| 2026-04-23 23:50 | -5.39050 | -33.28969 | 26939 ft | 438 kts | 22° |
| 2026-04-23 23:50 | -5.36282 | -33.27658 | 26939 ft | 438 kts | 22° |
| 2026-04-23 23:50 | -5.33535 | -33.26356 | 26936 ft | 435 kts | 22° |
| 2026-04-23 23:51 | -5.30879 | -33.25096 | 26933 ft | 418 kts | 22° |
| 2026-04-23 23:51 | -5.28291 | -33.23868 | 26938 ft | 402 kts | 22° |
| 2026-04-23 23:51 | -5.25771 | -33.22675 | 26941 ft | 395 kts | 22° |
| 2026-04-23 23:51 | -5.23265 | -33.21491 | 26943 ft | 400 kts | 22° |
| 2026-04-23 23:52 | -5.20746 | -33.20301 | 26941 ft | 404 kts | 22° |
| 2026-04-23 23:52 | -5.18211 | -33.19103 | 26938 ft | 403 kts | 22° |
| 2026-04-23 23:52 | -5.15671 | -33.17901 | 26937 ft | 401 kts | 22° |
| 2026-04-23 23:52 | -5.13134 | -33.16700 | 26879 ft | 396 kts | 22° |
| 2026-04-23 23:53 | -5.10696 | -33.15546 | 26395 ft | 395 kts | 22° |
| 2026-04-23 23:53 | -5.08206 | -33.14368 | 25873 ft | 393 kts | 22° |
| 2026-04-23 23:53 | -5.05737 | -33.13201 | 25381 ft | 391 kts | 22° |
| 2026-04-23 23:53 | -5.03275 | -33.12036 | 24886 ft | 390 kts | 22° |
| 2026-04-23 23:54 | -5.00844 | -33.10886 | 24409 ft | 388 kts | 22° |
| 2026-04-23 23:54 | -4.98416 | -33.09738 | 23940 ft | 385 kts | 23° |
| 2026-04-23 23:54 | -4.96008 | -33.08599 | 23469 ft | 383 kts | 23° |
| 2026-04-23 23:54 | -4.93598 | -33.07460 | 23001 ft | 381 kts | 23° |
| 2026-04-23 23:55 | -4.91232 | -33.06352 | 22577 ft | 377 kts | 26° |
| 2026-04-23 23:55 | -4.88809 | -33.05339 | 22322 ft | 367 kts | 24° |
| 2026-04-23 23:55 | -4.86504 | -33.04414 | 22091 ft | 357 kts | 24° |
| 2026-04-23 23:55 | -4.84206 | -33.03455 | 21635 ft | 355 kts | 25° |
| 2026-04-23 23:56 | -4.81960 | -33.02476 | 21180 ft | 353 kts | 26° |
| 2026-04-23 23:56 | -4.79732 | -33.01465 | 20710 ft | 351 kts | 27° |
| 2026-04-23 23:56 | -4.77529 | -33.00433 | 20242 ft | 349 kts | 27° |
| 2026-04-23 23:56 | -4.75339 | -32.99381 | 19742 ft | 348 kts | 28° |
| 2026-04-23 23:57 | -4.73194 | -32.98330 | 19255 ft | 346 kts | 28° |
| 2026-04-23 23:57 | -4.71051 | -32.97263 | 18771 ft | 344 kts | 29° |
| 2026-04-23 23:57 | -4.68941 | -32.96167 | 18290 ft | 343 kts | 30° |
| 2026-04-23 23:57 | -4.66811 | -32.95049 | 17805 ft | 341 kts | 29° |
| 2026-04-23 23:58 | -4.64722 | -32.93982 | 17336 ft | 340 kts | 28° |
| 2026-04-23 23:58 | -4.62608 | -32.92931 | 16868 ft | 338 kts | 28° |
| 2026-04-23 23:58 | -4.60496 | -32.91891 | 16404 ft | 336 kts | 28° |
| 2026-04-23 23:58 | -4.58405 | -32.90873 | 15948 ft | 335 kts | 27° |
| 2026-04-23 23:59 | -4.56324 | -32.89872 | 15497 ft | 333 kts | 27° |
| 2026-04-23 23:59 | -4.54228 | -32.88874 | 15051 ft | 332 kts | 27° |
| 2026-04-23 23:59 | -4.52153 | -32.87890 | 14609 ft | 330 kts | 27° |
| 2026-04-23 23:59 | -4.50109 | -32.86924 | 14175 ft | 328 kts | 27° |
| 2026-04-24 00:00 | -4.48036 | -32.85944 | 13736 ft | 327 kts | 27° |
| 2026-04-24 00:00 | -4.45974 | -32.84970 | 13314 ft | 325 kts | 26° |
| 2026-04-24 00:00 | -4.43969 | -32.84024 | 12926 ft | 323 kts | 26° |
| 2026-04-24 00:00 | -4.41927 | -32.83059 | 12519 ft | 322 kts | 26° |
| 2026-04-24 00:01 | -4.39920 | -32.82112 | 12125 ft | 320 kts | 26° |
| 2026-04-24 00:01 | -4.37907 | -32.81162 | 11626 ft | 322 kts | 26° |
| 2026-04-24 00:01 | -4.35876 | -32.80202 | 11069 ft | 325 kts | 26° |
| 2026-04-24 00:01 | -4.33837 | -32.79240 | 10619 ft | 324 kts | 26° |
| 2026-04-24 00:02 | -4.31805 | -32.78281 | 10245 ft | 320 kts | 26° |
| 2026-04-24 00:02 | -4.29809 | -32.77340 | 10095 ft | 305 kts | 26° |
| 2026-04-24 00:02 | -4.27974 | -32.76476 | 9964 ft | 286 kts | 26° |
| 2026-04-24 00:02 | -4.26222 | -32.75651 | 9747 ft | 275 kts | 26° |
| 2026-04-24 00:03 | -4.24479 | -32.74828 | 9364 ft | 278 kts | 26° |
| 2026-04-24 00:03 | -4.22723 | -32.73999 | 9013 ft | 278 kts | 26° |
| 2026-04-24 00:03 | -4.20985 | -32.73179 | 8673 ft | 278 kts | 26° |
| 2026-04-24 00:03 | -4.19240 | -32.72355 | 8332 ft | 278 kts | 26° |
| 2026-04-24 00:04 | -4.17484 | -32.71527 | 7989 ft | 278 kts | 26° |
| 2026-04-24 00:04 | -4.15733 | -32.70701 | 7646 ft | 278 kts | 26° |
| 2026-04-24 00:04 | -4.13996 | -32.69881 | 7304 ft | 277 kts | 26° |
| 2026-04-24 00:04 | -4.12258 | -32.69062 | 6964 ft | 277 kts | 26° |
| 2026-04-24 00:05 | -4.10515 | -32.68239 | 6621 ft | 276 kts | 26° |
| 2026-04-24 00:05 | -4.08792 | -32.67427 | 6269 ft | 266 kts | 26° |
| 2026-04-24 00:05 | -4.07130 | -32.66643 | 5968 ft | 265 kts | 26° |
| 2026-04-24 00:05 | -4.05448 | -32.65850 | 5628 ft | 265 kts | 26° |
| 2026-04-24 00:06 | -4.03798 | -32.65072 | 5299 ft | 266 kts | 26° |
| 2026-04-24 00:06 | -4.02128 | -32.64284 | 4969 ft | 265 kts | 25° |
| 2026-04-24 00:06 | -4.00460 | -32.63497 | 4640 ft | 265 kts | 25° |
| 2026-04-24 00:06 | -3.98778 | -32.62705 | 4316 ft | 264 kts | 25° |
| 2026-04-24 00:07 | -3.97153 | -32.61939 | 4187 ft | 251 kts | 25° |
| 2026-04-24 00:07 | -3.95623 | -32.61218 | 4117 ft | 233 kts | 25° |
| 2026-04-24 00:07 | -3.94146 | -32.60651 | 4001 ft | 226 kts | 15° |
| 2026-04-24 00:07 | -3.92636 | -32.60398 | 3965 ft | 213 kts | 6° |
| 2026-04-24 00:08 | -3.91233 | -32.60286 | 3988 ft | 193 kts | 4° |
| 2026-04-24 00:08 | -3.89930 | -32.60197 | 3950 ft | 181 kts | 5° |
| 2026-04-24 00:08 | -3.88685 | -32.60107 | 3657 ft | 180 kts | 5° |
| 2026-04-24 00:08 | -3.87439 | -32.60014 | 3330 ft | 180 kts | 5° |
| 2026-04-24 00:09 | -3.86214 | -32.59807 | 3006 ft | 179 kts | 20° |
| 2026-04-24 00:09 | -3.85152 | -32.59169 | 2680 ft | 178 kts | 44° |
| 2026-04-24 00:09 | -3.84465 | -32.58146 | 2355 ft | 178 kts | 70° |
| 2026-04-24 00:09 | -3.84287 | -32.56933 | 2103 ft | 175 kts | 92° |
| 2026-04-24 00:10 | -3.84389 | -32.55746 | 2134 ft | 171 kts | 95° |
| 2026-04-24 00:10 | -3.84499 | -32.54599 | 2089 ft | 157 kts | 94° |
| 2026-04-24 00:10 | -3.84581 | -32.53526 | 1832 ft | 153 kts | 94° |
| 2026-04-24 00:10 | -3.84660 | -32.52477 | 1945 ft | 150 kts | 94° |
| 2026-04-24 00:11 | -3.84743 | -32.51401 | 1968 ft | 159 kts | 94° |
| 2026-04-24 00:11 | -3.84832 | -32.50301 | 1643 ft | 157 kts | 94° |
| 2026-04-24 00:11 | -3.84918 | -32.49237 | 1332 ft | 151 kts | 94° |
| 2026-04-24 00:11 | -3.85005 | -32.48173 | 1201 ft | 153 kts | 94° |
| 2026-04-24 00:12 | -3.85086 | -32.47106 | 992 ft | 155 kts | 93° |
| 2026-04-24 00:12 | -3.85169 | -32.46044 | 787 ft | 153 kts | 94° |
| 2026-04-24 00:12 | -3.85250 | -32.44971 | 588 ft | 151 kts | 94° |
| 2026-04-24 00:12 | -3.85349 | -32.43935 | 555 ft | 153 kts | 94° |
| 2026-04-24 00:13 | -3.85414 | -32.42843 | 311 ft | 158 kts | 91° |
| 2026-04-24 00:13 | -3.85483 | -32.41807 | 206 ft | 141 kts | 93° |
| 2026-04-24 00:13 | -3.85508 | -32.40894 | 48 ft | 137 kts | 89° |
| 2026-04-24 00:13 | -3.85500 | -32.39991 | 155 ft | 125 kts | 82° |
| 2026-04-24 00:14 | -3.85323 | -32.39293 | 8 ft | 55 kts | 81° |
| 2026-04-24 00:14 | -3.85272 | -32.39075 | 3 ft | 19 kts | 62° |
| 2026-04-24 00:14 | -3.85240 | -32.38985 | 3 ft | 10 kts | 58° |
| 2026-04-24 00:14 | -3.85221 | -32.38939 | 3 ft | 6 kts | 58° |